sensor_id;sensor_type;location;lat;lon;timestamp;pressure;altitude;pressure_sealevel;temperature;humidity
60240;BME280;46102;39.012;-7.064;2024-02-04T00:00:40;99822.09;;;12.37;100.00
60240;BME280;46102;39.012;-7.064;2024-02-04T00:02:41;99819.34;;;12.37;100.00
60240;BME280;46102;39.012;-7.064;2024-02-04T00:04:41;99821.88;;;12.34;100.00
60240;BME280;46102;39.012;-7.064;2024-02-04T00:06:42;99820.75;;;12.35;100.00
60240;BME280;46102;39.012;-7.064;2024-02-04T00:08:43;99809.47;;;12.36;100.00
60240;BME280;46102;39.012;-7.064;2024-02-04T00:10:44;99817.19;;;12.34;100.00
60240;BME280;46102;39.012;-7.064;2024-02-04T00:12:45;99818.63;;;12.32;100.00
60240;BME280;46102;39.012;-7.064;2024-02-04T00:14:45;99822.47;;;12.31;100.00
60240;BME280;46102;39.012;-7.064;2024-02-04T00:16:46;99811.47;;;12.31;100.00
60240;BME280;46102;39.012;-7.064;2024-02-04T00:18:47;99822.47;;;12.31;100.00
60240;BME280;46102;39.012;-7.064;2024-02-04T00:20:47;99817.25;;;12.29;100.00
60240;BME280;46102;39.012;-7.064;2024-02-04T00:22:48;99815.63;;;12.28;100.00
60240;BME280;46102;39.012;-7.064;2024-02-04T00:24:49;99820.91;;;12.24;100.00
60240;BME280;46102;39.012;-7.064;2024-02-04T00:26:50;99825.59;;;12.24;100.00
60240;BME280;46102;39.012;-7.064;2024-02-04T00:28:51;99819.84;;;12.20;100.00
60240;BME280;46102;39.012;-7.064;2024-02-04T00:30:51;99817.09;;;12.20;100.00
60240;BME280;46102;39.012;-7.064;2024-02-04T00:32:55;99822.41;;;12.17;100.00
60240;BME280;46102;39.012;-7.064;2024-02-04T00:34:56;99819.38;;;12.18;100.00
60240;BME280;46102;39.012;-7.064;2024-02-04T00:36:57;99811.69;;;12.15;100.00
60240;BME280;46102;39.012;-7.064;2024-02-04T00:38:57;99810.06;;;12.14;100.00
60240;BME280;46102;39.012;-7.064;2024-02-04T00:40:58;99817.50;;;12.14;100.00
60240;BME280;46102;39.012;-7.064;2024-02-04T00:42:59;99816.38;;;12.15;100.00
60240;BME280;46102;39.012;-7.064;2024-02-04T00:45:00;99814.75;;;12.14;100.00
60240;BME280;46102;39.012;-7.064;2024-02-04T00:47:00;99818.38;;;12.09;100.00
60240;BME280;46102;39.012;-7.064;2024-02-04T00:49:01;99813.72;;;12.10;100.00
60240;BME280;46102;39.012;-7.064;2024-02-04T00:51:02;99820.31;;;12.08;100.00
60240;BME280;46102;39.012;-7.064;2024-02-04T00:53:03;99822.53;;;12.06;100.00
60240;BME280;46102;39.012;-7.064;2024-02-04T00:55:04;99817.63;;;12.03;100.00
60240;BME280;46102;39.012;-7.064;2024-02-04T00:57:05;99812.72;;;12.00;100.00
60240;BME280;46102;39.012;-7.064;2024-02-04T00:59:05;99817.09;;;12.01;100.00
60240;BME280;46102;39.012;-7.064;2024-02-04T01:01:06;99811.91;;;12.00;100.00
60240;BME280;46102;39.012;-7.064;2024-02-04T01:03:08;99800.69;;;11.96;100.00
60240;BME280;46102;39.012;-7.064;2024-02-04T01:05:08;99808.41;;;11.94;100.00
60240;BME280;46102;39.012;-7.064;2024-02-04T01:07:09;99807.59;;;11.94;100.00
60240;BME280;46102;39.012;-7.064;2024-02-04T01:09:10;99809.22;;;11.95;100.00
60240;BME280;46102;39.012;-7.064;2024-02-04T01:11:11;99802.63;;;11.96;100.00
60240;BME280;46102;39.012;-7.064;2024-02-04T01:13:12;99806.19;;;11.96;100.00
60240;BME280;46102;39.012;-7.064;2024-02-04T01:15:13;99801.78;;;11.95;100.00
60240;BME280;46102;39.012;-7.064;2024-02-04T01:17:14;99800.16;;;11.94;100.00
60240;BME280;46102;39.012;-7.064;2024-02-04T01:19:14;99798.50;;;11.93;100.00
60240;BME280;46102;39.012;-7.064;2024-02-04T01:21:15;99796.38;;;11.90;100.00
60240;BME280;46102;39.012;-7.064;2024-02-04T01:23:16;99802.72;;;11.85;100.00
60240;BME280;46102;39.012;-7.064;2024-02-04T01:25:20;99794.53;;;11.80;100.00
60240;BME280;46102;39.012;-7.064;2024-02-04T01:27:21;99802.28;;;11.78;100.00
60240;BME280;46102;39.012;-7.064;2024-02-04T01:29:21;99797.56;;;11.79;100.00
60240;BME280;46102;39.012;-7.064;2024-02-04T01:31:22;99797.06;;;11.77;100.00
60240;BME280;46102;39.012;-7.064;2024-02-04T01:33:23;99801.75;;;11.76;100.00
60240;BME280;46102;39.012;-7.064;2024-02-04T01:35:24;99794.03;;;11.78;100.00
60240;BME280;46102;39.012;-7.064;2024-02-04T01:37:25;99793.50;;;11.76;100.00
60240;BME280;46102;39.012;-7.064;2024-02-04T01:39:26;99795.44;;;11.76;100.00
60240;BME280;46102;39.012;-7.064;2024-02-04T01:41:27;99783.66;;;11.70;100.00
60240;BME280;46102;39.012;-7.064;2024-02-04T01:43:28;99786.50;;;11.65;100.00
60240;BME280;46102;39.012;-7.064;2024-02-04T01:45:28;99792.78;;;11.65;100.00
60240;BME280;46102;39.012;-7.064;2024-02-04T01:47:29;99786.22;;;11.66;100.00
60240;BME280;46102;39.012;-7.064;2024-02-04T01:49:30;99787.00;;;11.67;100.00
60240;BME280;46102;39.012;-7.064;2024-02-04T01:51:31;99790.56;;;11.67;100.00
60240;BME280;46102;39.012;-7.064;2024-02-04T01:53:32;99787.00;;;11.67;100.00
60240;BME280;46102;39.012;-7.064;2024-02-04T01:55:34;99786.41;;;11.70;100.00
60240;BME280;46102;39.012;-7.064;2024-02-04T01:57:35;99780.63;;;11.72;100.00
60240;BME280;46102;39.012;-7.064;2024-02-04T01:59:39;99779.81;;;11.71;100.00
60240;BME280;46102;39.012;-7.064;2024-02-04T02:01:42;99779.81;;;11.71;100.00
60240;BME280;46102;39.012;-7.064;2024-02-04T02:03:43;99779.50;;;11.73;100.00
60240;BME280;46102;39.012;-7.064;2024-02-04T02:05:45;99778.69;;;11.72;100.00
60240;BME280;46102;39.012;-7.064;2024-02-04T02:07:46;99772.66;;;11.70;100.00
60240;BME280;46102;39.012;-7.064;2024-02-04T02:09:51;99780.72;;;11.66;100.00
60240;BME280;46102;39.012;-7.064;2024-02-04T02:12:07;99775.78;;;11.63;100.00
60240;BME280;46102;39.012;-7.064;2024-02-04T02:14:14;99779.94;;;11.61;100.00
60240;BME280;46102;39.012;-7.064;2024-02-04T02:16:18;99785.44;;;11.61;100.00
60240;BME280;46102;39.012;-7.064;2024-02-04T02:18:31;99784.16;;;11.53;100.00
60240;BME280;46102;39.012;-7.064;2024-02-04T02:23:17;99779.56;;;11.49;100.00
60240;BME280;46102;39.012;-7.064;2024-02-04T02:25:22;99778.44;;;11.50;100.00
60240;BME280;46102;39.012;-7.064;2024-02-04T02:27:24;99779.25;;;11.50;100.00
60240;BME280;46102;39.012;-7.064;2024-02-04T02:29:24;99778.44;;;11.50;100.00
60240;BME280;46102;39.012;-7.064;2024-02-04T02:31:25;99780.38;;;11.49;100.00
60240;BME280;46102;39.012;-7.064;2024-02-04T02:33:26;99772.94;;;11.50;100.00
60240;BME280;46102;39.012;-7.064;2024-02-04T02:35:27;99771.84;;;11.51;100.00
60240;BME280;46102;39.012;-7.064;2024-02-04T02:37:43;99765.81;;;11.49;100.00
60240;BME280;46102;39.012;-7.064;2024-02-04T02:39:50;99772.13;;;11.49;100.00
60240;BME280;46102;39.012;-7.064;2024-02-04T02:41:55;99768.56;;;11.49;100.00
60240;BME280;46102;39.012;-7.064;2024-02-04T02:43:59;99772.72;;;11.46;100.00
60240;BME280;46102;39.012;-7.064;2024-02-04T02:46:01;99770.00;;;11.41;100.00
60240;BME280;46102;39.012;-7.064;2024-02-04T02:48:02;99770.09;;;11.36;100.00
60240;BME280;46102;39.012;-7.064;2024-02-04T02:50:05;99763.78;;;11.35;100.00
60240;BME280;46102;39.012;-7.064;2024-02-04T02:52:06;99768.44;;;11.35;100.00
60240;BME280;46102;39.012;-7.064;2024-02-04T02:54:07;99760.72;;;11.37;100.00
60240;BME280;46102;39.012;-7.064;2024-02-04T02:56:08;99766.53;;;11.35;100.00
60240;BME280;46102;39.012;-7.064;2024-02-04T02:58:09;99759.09;;;11.36;100.00
60240;BME280;46102;39.012;-7.064;2024-02-04T03:00:10;99759.69;;;11.33;100.00
60240;BME280;46102;39.012;-7.064;2024-02-04T03:02:11;99755.88;;;11.29;100.00
60240;BME280;46102;39.012;-7.064;2024-02-04T03:04:14;99759.97;;;11.31;100.00
60240;BME280;46102;39.012;-7.064;2024-02-04T03:06:15;99762.78;;;11.26;100.00
60240;BME280;46102;39.012;-7.064;2024-02-04T03:08:15;99758.66;;;11.23;100.00
60240;BME280;46102;39.012;-7.064;2024-02-04T03:10:17;99756.53;;;11.20;100.00
60240;BME280;46102;39.012;-7.064;2024-02-04T03:12:18;99752.69;;;11.21;100.00
60240;BME280;46102;39.012;-7.064;2024-02-04T03:14:20;99755.72;;;11.20;100.00
60240;BME280;46102;39.012;-7.064;2024-02-04T03:16:20;99751.03;;;11.20;100.00
60240;BME280;46102;39.012;-7.064;2024-02-04T03:18:21;99752.97;;;11.20;100.00
60240;BME280;46102;39.012;-7.064;2024-02-04T03:20:22;99755.19;;;11.18;100.00
60240;BME280;46102;39.012;-7.064;2024-02-04T03:22:23;99758.22;;;11.16;100.00
60240;BME280;46102;39.012;-7.064;2024-02-04T03:24:24;99749.97;;;11.16;100.00
60240;BME280;46102;39.012;-7.064;2024-02-04T03:26:24;99744.25;;;11.13;100.00
60240;BME280;46102;39.012;-7.064;2024-02-04T03:28:25;99745.06;;;11.13;100.00
60240;BME280;46102;39.012;-7.064;2024-02-04T03:30:26;99747.28;;;11.11;100.00
60240;BME280;46102;39.012;-7.064;2024-02-04T03:32:27;99741.78;;;11.11;100.00
60240;BME280;46102;39.012;-7.064;2024-02-04T03:34:29;99733.56;;;11.11;100.00
60240;BME280;46102;39.012;-7.064;2024-02-04T03:36:31;99742.66;;;11.07;100.00
60240;BME280;46102;39.012;-7.064;2024-02-04T03:38:32;99734.44;;;11.07;100.00
60240;BME280;46102;39.012;-7.064;2024-02-04T03:40:33;99731.69;;;11.07;100.00
60240;BME280;46102;39.012;-7.064;2024-02-04T03:42:33;99733.31;;;11.08;100.00
60240;BME280;46102;39.012;-7.064;2024-02-04T03:44:35;99732.50;;;11.07;100.00
60240;BME280;46102;39.012;-7.064;2024-02-04T03:46:36;99733.31;;;11.08;100.00
60240;BME280;46102;39.012;-7.064;2024-02-04T03:48:40;99731.97;;;11.05;100.00
60240;BME280;46102;39.012;-7.064;2024-02-04T03:50:41;99732.56;;;11.02;100.00
60240;BME280;46102;39.012;-7.064;2024-02-04T03:52:42;99734.25;;;10.98;100.00
60240;BME280;46102;39.012;-7.064;2024-02-04T03:54:44;99731.28;;;10.94;100.00
60240;BME280;46102;39.012;-7.064;2024-02-04T03:56:44;99733.78;;;10.91;100.00
60240;BME280;46102;39.012;-7.064;2024-02-04T03:58:45;99740.09;;;10.91;100.00
60240;BME280;46102;39.012;-7.064;2024-02-04T04:00:46;99738.75;;;10.89;100.00
60240;BME280;46102;39.012;-7.064;2024-02-04T04:02:47;99734.13;;;10.84;100.00
60240;BME280;46102;39.012;-7.064;2024-02-04T04:04:48;99730.84;;;10.82;100.00
60240;BME280;46102;39.012;-7.064;2024-02-04T04:06:49;99730.59;;;10.78;100.00
60240;BME280;46102;39.012;-7.064;2024-02-04T04:08:49;99725.16;;;10.73;100.00
60240;BME280;46102;39.012;-7.064;2024-02-04T04:10:50;99738.66;;;10.70;100.00
60240;BME280;46102;39.012;-7.064;2024-02-04T04:12:51;99736.72;;;10.70;100.00
60240;BME280;46102;39.012;-7.064;2024-02-04T04:14:52;99734.28;;;10.69;100.00
60240;BME280;46102;39.012;-7.064;2024-02-04T04:16:53;99733.47;;;10.68;100.00
60240;BME280;46102;39.012;-7.064;2024-02-04T04:18:54;99730.19;;;10.66;100.00
60240;BME280;46102;39.012;-7.064;2024-02-04T04:20:55;99735.66;;;10.66;100.00
60240;BME280;46102;39.012;-7.064;2024-02-04T04:22:56;99736.19;;;10.68;100.00
60240;BME280;46102;39.012;-7.064;2024-02-04T04:24:57;99737.81;;;10.69;100.00
60240;BME280;46102;39.012;-7.064;2024-02-04T04:26:58;99735.66;;;10.66;100.00
60240;BME280;46102;39.012;-7.064;2024-02-04T04:28:58;99735.38;;;10.68;100.00
60240;BME280;46102;39.012;-7.064;2024-02-04T04:30:59;99731.53;;;10.69;100.00
60240;BME280;46102;39.012;-7.064;2024-02-04T04:33:00;99732.94;;;10.66;100.00
60240;BME280;46102;39.012;-7.064;2024-02-04T04:35:01;99731.00;;;10.67;100.00
60240;BME280;46102;39.012;-7.064;2024-02-04T04:37:01;99737.59;;;10.66;100.00
60240;BME280;46102;39.012;-7.064;2024-02-04T04:39:02;99737.59;;;10.66;100.00
60240;BME280;46102;39.012;-7.064;2024-02-04T04:41:03;99739.22;;;10.67;100.00
60240;BME280;46102;39.012;-7.064;2024-02-04T04:43:04;99747.25;;;10.63;100.00
60240;BME280;46102;39.012;-7.064;2024-02-04T04:45:05;99742.31;;;10.60;100.00
60240;BME280;46102;39.012;-7.064;2024-02-04T04:47:08;99749.78;;;10.54;100.00
60240;BME280;46102;39.012;-7.064;2024-02-04T04:49:09;99738.81;;;10.54;100.00
60240;BME280;46102;39.012;-7.064;2024-02-04T04:51:11;99738.50;;;10.56;100.00
60240;BME280;46102;39.012;-7.064;2024-02-04T04:53:12;99742.63;;;10.53;100.00
60240;BME280;46102;39.012;-7.064;2024-02-04T04:55:13;99742.38;;;10.55;100.00
60240;BME280;46102;39.012;-7.064;2024-02-04T04:57:14;99738.00;;;10.54;100.00
60240;BME280;46102;39.012;-7.064;2024-02-04T04:59:16;99739.66;;;10.50;100.00
60240;BME280;46102;39.012;-7.064;2024-02-04T05:01:17;99741.59;;;10.49;100.00
60240;BME280;46102;39.012;-7.064;2024-02-04T05:03:17;99751.72;;;10.49;100.00
60240;BME280;46102;39.012;-7.064;2024-02-04T05:05:18;99745.19;;;10.45;100.00
60240;BME280;46102;39.012;-7.064;2024-02-04T05:07:19;99748.50;;;10.41;100.00
60240;BME280;46102;39.012;-7.064;2024-02-04T05:09:20;99745.50;;;10.38;100.00
60240;BME280;46102;39.012;-7.064;2024-02-04T05:11:21;99749.38;;;10.37;100.00
60240;BME280;46102;39.012;-7.064;2024-02-04T05:13:21;99747.16;;;10.39;100.00
60240;BME280;46102;39.012;-7.064;2024-02-04T05:15:22;99739.47;;;10.41;100.00
60240;BME280;46102;39.012;-7.064;2024-02-04T05:17:24;99745.50;;;10.43;100.00
60240;BME280;46102;39.012;-7.064;2024-02-04T05:19:24;99751.50;;;10.45;100.00
60240;BME280;46102;39.012;-7.064;2024-02-04T05:21:25;99752.91;;;10.43;100.00
60240;BME280;46102;39.012;-7.064;2024-02-04T05:23:26;99752.91;;;10.43;100.00
60240;BME280;46102;39.012;-7.064;2024-02-04T05:25:27;99755.34;;;10.44;100.00
60240;BME280;46102;39.012;-7.064;2024-02-04T05:27:27;99752.59;;;10.44;100.00
60240;BME280;46102;39.012;-7.064;2024-02-04T05:29:30;99754.78;;;10.47;100.00
60240;BME280;46102;39.012;-7.064;2024-02-04T05:31:30;99754.47;;;10.49;100.00
60240;BME280;46102;39.012;-7.064;2024-02-04T05:33:31;99750.94;;;10.48;100.00
60240;BME280;46102;39.012;-7.064;2024-02-04T05:35:32;99757.53;;;10.47;100.00
60240;BME280;46102;39.012;-7.064;2024-02-04T05:37:33;99753.41;;;10.45;100.00
60240;BME280;46102;39.012;-7.064;2024-02-04T05:39:33;99750.97;;;10.43;100.00
60240;BME280;46102;39.012;-7.064;2024-02-04T05:41:34;99752.91;;;10.43;100.00
60240;BME280;46102;39.012;-7.064;2024-02-04T05:43:35;99748.78;;;10.40;100.00
60240;BME280;46102;39.012;-7.064;2024-02-04T05:45:39;99754.28;;;10.40;100.00
60240;BME280;46102;39.012;-7.064;2024-02-04T05:47:41;99751.84;;;10.38;100.00
60240;BME280;46102;39.012;-7.064;2024-02-04T05:49:42;99755.97;;;10.36;100.00
60240;BME280;46102;39.012;-7.064;2024-02-04T05:51:43;99760.63;;;10.35;100.00
60240;BME280;46102;39.012;-7.064;2024-02-04T05:53:44;99754.59;;;10.33;100.00
60240;BME280;46102;39.012;-7.064;2024-02-04T05:55:45;99756.53;;;10.28;100.00
60240;BME280;46102;39.012;-7.064;2024-02-04T05:57:46;99756.59;;;10.23;100.00
60240;BME280;46102;39.012;-7.064;2024-02-04T05:59:47;99749.19;;;10.23;100.00
60240;BME280;46102;39.012;-7.064;2024-02-04T06:01:53;99757.41;;;10.23;100.00
60240;BME280;46102;39.012;-7.064;2024-02-04T06:03:53;99754.66;;;10.23;100.00
60240;BME280;46102;39.012;-7.064;2024-02-04T06:05:54;99759.88;;;10.19;100.00
60240;BME280;46102;39.012;-7.064;2024-02-04T06:07:55;99762.94;;;10.18;100.00
60240;BME280;46102;39.012;-7.064;2024-02-04T06:09:56;99758.00;;;10.15;100.00
60240;BME280;46102;39.012;-7.064;2024-02-04T06:11:56;99764.59;;;10.14;100.00
60240;BME280;46102;39.012;-7.064;2024-02-04T06:13:57;99772.03;;;10.13;100.00
60240;BME280;46102;39.012;-7.064;2024-02-04T06:15:58;99763.78;;;10.13;100.00
60240;BME280;46102;39.012;-7.064;2024-02-04T06:17:59;99766.00;;;10.11;100.00
60240;BME280;46102;39.012;-7.064;2024-02-04T06:19:59;99767.09;;;10.10;100.00
60240;BME280;46102;39.012;-7.064;2024-02-04T06:22:01;99774.50;;;10.10;100.00
60240;BME280;46102;39.012;-7.064;2024-02-04T06:24:01;99768.19;;;10.09;100.00
60240;BME280;46102;39.012;-7.064;2024-02-04T06:26:04;99766.31;;;10.05;100.00
60240;BME280;46102;39.012;-7.064;2024-02-04T06:28:05;99769.06;;;10.05;100.00
60240;BME280;46102;39.012;-7.064;2024-02-04T06:30:07;99767.13;;;10.05;100.00
60240;BME280;46102;39.012;-7.064;2024-02-04T06:32:08;99776.97;;;10.06;100.00
60240;BME280;46102;39.012;-7.064;2024-02-04T06:34:09;99785.19;;;10.06;100.00
60240;BME280;46102;39.012;-7.064;2024-02-04T06:36:10;99785.19;;;10.06;100.00
60240;BME280;46102;39.012;-7.064;2024-02-04T06:38:11;99782.19;;;10.08;100.00
60240;BME280;46102;39.012;-7.064;2024-02-04T06:40:12;99781.09;;;10.09;100.00
60240;BME280;46102;39.012;-7.064;2024-02-04T06:42:12;99788.75;;;10.12;100.00
60240;BME280;46102;39.012;-7.064;2024-02-04T06:44:13;99784.88;;;10.13;100.00
60240;BME280;46102;39.012;-7.064;2024-02-04T06:46:14;99790.91;;;10.15;100.00
60240;BME280;46102;39.012;-7.064;2024-02-04T06:48:23;99794.47;;;10.15;100.00
60240;BME280;46102;39.012;-7.064;2024-02-04T06:50:24;99794.47;;;10.15;100.00
60240;BME280;46102;39.012;-7.064;2024-02-04T06:52:25;99794.78;;;10.14;100.00
60240;BME280;46102;39.012;-7.064;2024-02-04T06:54:25;99792.31;;;10.12;100.00
60240;BME280;46102;39.012;-7.064;2024-02-04T06:56:26;99804.97;;;10.03;100.00
60240;BME280;46102;39.012;-7.064;2024-02-04T06:58:27;99800.91;;;9.90;100.00
60240;BME280;46102;39.012;-7.064;2024-02-04T07:00:28;99793.84;;;9.84;100.00
60240;BME280;46102;39.012;-7.064;2024-02-04T07:02:29;99798.25;;;9.80;100.00
60240;BME280;46102;39.012;-7.064;2024-02-04T07:04:30;99802.91;;;9.74;100.00
60240;BME280;46102;39.012;-7.064;2024-02-04T07:06:30;99805.97;;;9.68;100.00
60240;BME280;46102;39.012;-7.064;2024-02-04T07:08:31;99802.72;;;9.61;100.00
60240;BME280;46102;39.012;-7.064;2024-02-04T07:10:32;99804.66;;;9.55;100.00
60240;BME280;46102;39.012;-7.064;2024-02-04T07:12:33;99807.72;;;9.48;100.00
60240;BME280;46102;39.012;-7.064;2024-02-04T07:14:33;99807.72;;;9.48;100.00
60240;BME280;46102;39.012;-7.064;2024-02-04T07:16:34;99815.09;;;9.48;100.00
60240;BME280;46102;39.012;-7.064;2024-02-04T07:18:35;99815.91;;;9.48;100.00
60240;BME280;46102;39.012;-7.064;2024-02-04T07:20:35;99821.41;;;9.48;100.00
60240;BME280;46102;39.012;-7.064;2024-02-04T07:22:36;99812.88;;;9.50;100.00
60240;BME280;46102;39.012;-7.064;2024-02-04T07:24:37;99820.84;;;9.51;100.00
60240;BME280;46102;39.012;-7.064;2024-02-04T07:26:38;99821.38;;;9.53;100.00
60240;BME280;46102;39.012;-7.064;2024-02-04T07:28:38;99821.09;;;9.55;100.00
60240;BME280;46102;39.012;-7.064;2024-02-04T07:30:39;99820.00;;;9.56;100.00
60240;BME280;46102;39.012;-7.064;2024-02-04T07:32:40;99817.25;;;9.56;100.00
60240;BME280;46102;39.012;-7.064;2024-02-04T07:34:41;99820.56;;;9.53;100.00
60240;BME280;46102;39.012;-7.064;2024-02-04T07:36:42;99821.66;;;9.52;100.00
60240;BME280;46102;39.012;-7.064;2024-02-04T07:38:43;99825.19;;;9.52;100.00
60240;BME280;46102;39.012;-7.064;2024-02-04T07:40:44;99825.19;;;9.52;100.00
60240;BME280;46102;39.012;-7.064;2024-02-04T07:42:44;99828.78;;;9.53;100.00
60240;BME280;46102;39.012;-7.064;2024-02-04T07:44:45;99823.53;;;9.56;100.00
60240;BME280;46102;39.012;-7.064;2024-02-04T07:46:46;99825.44;;;9.61;100.00
60240;BME280;46102;39.012;-7.064;2024-02-04T07:48:47;99831.47;;;9.68;100.00
60240;BME280;46102;39.012;-7.064;2024-02-04T07:50:47;99835.81;;;9.74;100.00
60240;BME280;46102;39.012;-7.064;2024-02-04T07:52:48;99833.06;;;9.79;100.00
60240;BME280;46102;39.012;-7.064;2024-02-04T07:54:49;99840.16;;;9.86;100.00
60240;BME280;46102;39.012;-7.064;2024-02-04T07:56:50;99834.94;;;9.89;100.00
60240;BME280;46102;39.012;-7.064;2024-02-04T07:58:50;99839.56;;;9.94;100.00
60240;BME280;46102;39.012;-7.064;2024-02-04T08:00:51;99832.38;;;10.03;100.00
60240;BME280;46102;39.012;-7.064;2024-02-04T08:02:52;99836.66;;;10.19;100.00
60240;BME280;46102;39.012;-7.064;2024-02-04T08:04:53;99831.97;;;10.30;100.00
60240;BME280;46102;39.012;-7.064;2024-02-04T08:06:54;99834.41;;;10.37;100.00
60240;BME280;46102;39.012;-7.064;2024-02-04T08:08:54;99835.22;;;10.43;100.00
60240;BME280;46102;39.012;-7.064;2024-02-04T08:10:55;99837.31;;;10.51;100.00
60240;BME280;46102;39.012;-7.064;2024-02-04T08:12:58;99838.34;;;10.60;100.00
60240;BME280;46102;39.012;-7.064;2024-02-04T08:14:59;99837.47;;;10.70;100.00
60240;BME280;46102;39.012;-7.064;2024-02-04T08:17:00;99840.97;;;10.75;100.00
60240;BME280;46102;39.012;-7.064;2024-02-04T08:19:00;99833.53;;;10.81;100.00
60240;BME280;46102;39.012;-7.064;2024-02-04T08:21:01;99838.97;;;10.86;100.00
60240;BME280;46102;39.012;-7.064;2024-02-04T08:23:02;99842.19;;;10.93;100.00
60240;BME280;46102;39.012;-7.064;2024-02-04T08:25:04;99840.75;;;11.01;100.00
60240;BME280;46102;39.012;-7.064;2024-02-04T08:27:06;99841.78;;;11.10;100.00
60240;BME280;46102;39.012;-7.064;2024-02-04T08:29:07;99843.59;;;11.20;100.00
60240;BME280;46102;39.012;-7.064;2024-02-04T08:31:08;99840.25;;;11.28;100.00
60240;BME280;46102;39.012;-7.064;2024-02-04T08:33:08;99839.28;;;11.38;100.00
60240;BME280;46102;39.012;-7.064;2024-02-04T08:35:09;99839.69;;;11.50;100.00
60240;BME280;46102;39.012;-7.064;2024-02-04T08:37:10;99842.06;;;11.62;100.00
60240;BME280;46102;39.012;-7.064;2024-02-04T08:39:11;99844.91;;;11.76;100.00
60240;BME280;46102;39.012;-7.064;2024-02-04T08:41:11;99850.47;;;11.95;100.00
60240;BME280;46102;39.012;-7.064;2024-02-04T08:43:12;99850.81;;;12.12;100.00
60240;BME280;46102;39.012;-7.064;2024-02-04T08:45:13;99845.59;;;12.29;100.00
60240;BME280;46102;39.012;-7.064;2024-02-04T08:47:14;99853.69;;;12.40;100.00
60240;BME280;46102;39.012;-7.064;2024-02-04T08:49:16;99859.34;;;12.48;100.00
60240;BME280;46102;39.012;-7.064;2024-02-04T08:51:17;99860.69;;;12.51;100.00
60240;BME280;46102;39.012;-7.064;2024-02-04T08:53:19;99860.91;;;12.55;100.00
60240;BME280;46102;39.012;-7.064;2024-02-04T08:55:20;99858.09;;;12.60;100.00
60240;BME280;46102;39.012;-7.064;2024-02-04T08:57:21;99861.34;;;12.62;100.00
60240;BME280;46102;39.012;-7.064;2024-02-04T08:59:21;99856.28;;;12.69;100.00
60240;BME280;46102;39.012;-7.064;2024-02-04T09:01:24;99854.28;;;12.75;100.00
60240;BME280;46102;39.012;-7.064;2024-02-04T09:03:26;99866.25;;;12.84;100.00
60240;BME280;46102;39.012;-7.064;2024-02-04T09:05:26;99864.81;;;12.86;100.00
60240;BME280;46102;39.012;-7.064;2024-02-04T09:07:27;99870.53;;;12.90;100.00
60240;BME280;46102;39.012;-7.064;2024-02-04T09:09:28;99867.00;;;13.03;100.00
60240;BME280;46102;39.012;-7.064;2024-02-04T09:11:29;99870.94;;;13.16;100.00
60240;BME280;46102;39.012;-7.064;2024-02-04T09:13:30;99877.00;;;13.32;100.00
60240;BME280;46102;39.012;-7.064;2024-02-04T09:15:30;99879.50;;;13.47;100.00
60240;BME280;46102;39.012;-7.064;2024-02-04T09:17:31;99879.59;;;13.56;100.00
60240;BME280;46102;39.012;-7.064;2024-02-04T09:19:33;99880.03;;;13.63;100.00
60240;BME280;46102;39.012;-7.064;2024-02-04T09:21:34;99888.19;;;13.68;100.00
60240;BME280;46102;39.012;-7.064;2024-02-04T09:23:35;99888.69;;;13.70;100.00
60240;BME280;46102;39.012;-7.064;2024-02-04T09:25:35;99888.41;;;13.86;100.00
60240;BME280;46102;39.012;-7.064;2024-02-04T09:27:36;99894.03;;;13.94;100.00
60240;BME280;46102;39.012;-7.064;2024-02-04T09:29:37;99892.19;;;14.04;100.00
60240;BME280;46102;39.012;-7.064;2024-02-04T09:31:38;99895.63;;;14.23;100.00
60240;BME280;46102;39.012;-7.064;2024-02-04T09:33:39;99894.69;;;14.42;100.00
60240;BME280;46102;39.012;-7.064;2024-02-04T09:35:41;99891.78;;;14.61;100.00
60240;BME280;46102;39.012;-7.064;2024-02-04T09:37:42;99899.41;;;14.77;99.23
60240;BME280;46102;39.012;-7.064;2024-02-04T09:39:42;99890.78;;;15.02;96.58
60240;BME280;46102;39.012;-7.064;2024-02-04T09:41:43;99895.78;;;15.13;95.36
60240;BME280;46102;39.012;-7.064;2024-02-04T09:43:45;99892.00;;;15.09;94.51
60240;BME280;46102;39.012;-7.064;2024-02-04T09:45:46;99897.53;;;15.09;94.96
60240;BME280;46102;39.012;-7.064;2024-02-04T09:47:50;99893.06;;;15.22;95.20
60240;BME280;46102;39.012;-7.064;2024-02-04T09:49:53;99885.66;;;15.31;94.31
60240;BME280;46102;39.012;-7.064;2024-02-04T09:51:59;99894.25;;;15.30;93.59
60240;BME280;46102;39.012;-7.064;2024-02-04T09:54:03;99896.88;;;15.35;94.61
60240;BME280;46102;39.012;-7.064;2024-02-04T09:56:07;99890.38;;;15.39;93.99
60240;BME280;46102;39.012;-7.064;2024-02-04T09:58:09;99887.66;;;15.48;93.80
60240;BME280;46102;39.012;-7.064;2024-02-04T10:00:10;99890.09;;;15.72;91.67
60240;BME280;46102;39.012;-7.064;2024-02-04T10:02:15;99898.34;;;16.03;88.27
60240;BME280;46102;39.012;-7.064;2024-02-04T10:04:16;99893.34;;;16.23;86.98
60240;BME280;46102;39.012;-7.064;2024-02-04T10:06:17;99893.69;;;16.30;85.63
60240;BME280;46102;39.012;-7.064;2024-02-04T10:08:18;99889.97;;;16.35;84.87
60240;BME280;46102;39.012;-7.064;2024-02-04T10:10:19;99892.56;;;16.49;84.44
60240;BME280;46102;39.012;-7.064;2024-02-04T10:12:19;99896.97;;;16.67;83.89
60240;BME280;46102;39.012;-7.064;2024-02-04T10:14:20;99887.88;;;16.84;83.52
60240;BME280;46102;39.012;-7.064;2024-02-04T10:16:22;99888.03;;;16.96;82.49
60240;BME280;46102;39.012;-7.064;2024-02-04T10:18:22;99888.53;;;17.07;81.93
60240;BME280;46102;39.012;-7.064;2024-02-04T10:20:24;99895.50;;;17.22;78.45
60240;BME280;46102;39.012;-7.064;2024-02-04T10:22:26;99890.59;;;17.27;76.17
60240;BME280;46102;39.012;-7.064;2024-02-04T10:24:28;99896.97;;;17.28;73.56
60240;BME280;46102;39.012;-7.064;2024-02-04T10:26:29;99897.13;;;17.32;72.54
60240;BME280;46102;39.012;-7.064;2024-02-04T10:28:36;99897.44;;;17.30;71.41
60240;BME280;46102;39.012;-7.064;2024-02-04T10:30:38;99903.97;;;17.34;69.71